createdAt,value
2023-04-12T00:01:01.194Z,0
2023-04-12T00:02:17.479Z,0
2023-04-12T00:03:33.782Z,0
2023-04-12T00:04:50.068Z,0
2023-04-12T00:06:06.372Z,0
2023-04-12T00:07:22.657Z,0
2023-04-12T00:08:38.968Z,0
2023-04-12T00:09:55.247Z,0
2023-04-12T00:11:11.540Z,0
2023-04-12T00:12:27.843Z,0
2023-04-12T00:13:44.136Z,0
2023-04-12T00:15:00.438Z,0
2023-04-12T00:16:16.717Z,0
2023-04-12T00:17:33.034Z,0
2023-04-12T00:18:49.306Z,0
2023-04-12T00:20:05.605Z,0
2023-04-12T00:21:21.908Z,0
2023-04-12T00:22:37.212Z,0
2023-04-12T00:23:53.505Z,0
2023-04-12T00:25:09.804Z,0
2023-04-12T00:26:26.100Z,0
2023-04-12T00:27:42.396Z,0
2023-04-12T00:28:58.691Z,0
2023-04-12T00:30:14.975Z,0
2023-04-12T00:31:31.271Z,0
2023-04-12T00:34:03.879Z,0
2023-04-12T00:35:20.167Z,0
2023-04-12T00:36:36.460Z,0
2023-04-12T00:37:52.762Z,0
2023-04-12T00:39:08.060Z,0
2023-04-12T00:40:24.356Z,0
2023-04-12T00:41:40.645Z,0
2023-04-12T00:42:56.954Z,0
2023-04-12T00:44:13.245Z,0
2023-04-12T00:45:29.537Z,0
2023-04-12T00:46:45.838Z,0
2023-04-12T00:48:02.134Z,0
2023-04-12T00:49:18.416Z,0
2023-04-12T00:50:34.718Z,0
2023-04-12T00:51:51.021Z,0
2023-04-12T00:53:07.300Z,0
2023-04-12T00:54:23.601Z,0
2023-04-12T00:55:38.921Z,0
2023-04-12T00:56:55.197Z,0
2023-04-12T00:58:11.509Z,0
2023-04-12T00:59:27.799Z,0
2023-04-12T01:00:44.099Z,0
2023-04-12T01:02:00.380Z,0
2023-04-12T01:03:16.675Z,0
2023-04-12T01:04:32.975Z,0
2023-04-12T01:05:49.280Z,0
2023-04-12T01:07:05.558Z,0
2023-04-12T01:08:21.862Z,0
2023-04-12T01:09:38.146Z,0
2023-04-12T01:12:10.753Z,0
2023-04-12T01:13:26.066Z,0
2023-04-12T01:14:42.350Z,0
2023-04-12T01:15:58.640Z,0
2023-04-12T01:17:14.944Z,0
2023-04-12T01:18:31.238Z,0
2023-04-12T01:19:47.524Z,0
2023-04-12T01:21:03.823Z,0
2023-04-12T01:22:20.113Z,0
2023-04-12T01:23:36.404Z,0
2023-04-12T01:24:52.700Z,0
2023-04-12T01:26:09.006Z,0
2023-04-12T01:27:25.306Z,0
2023-04-12T01:28:41.588Z,0
2023-04-12T01:29:56.905Z,0
2023-04-12T01:31:13.197Z,0
2023-04-12T01:32:29.504Z,0
2023-04-12T01:33:45.785Z,0
2023-04-12T01:35:02.086Z,0
2023-04-12T01:36:18.376Z,0
2023-04-12T01:37:34.677Z,0
2023-04-12T01:38:50.961Z,0
2023-04-12T01:40:07.269Z,0
2023-04-12T01:41:23.548Z,0
2023-04-12T01:42:39.845Z,0
2023-04-12T01:43:56.157Z,0
2023-04-12T01:45:12.452Z,0
2023-04-12T01:46:27.745Z,0
2023-04-12T01:47:44.048Z,0
2023-04-12T01:49:00.340Z,0
2023-04-12T01:50:16.640Z,0
2023-04-12T01:51:32.927Z,0
2023-04-12T01:52:49.223Z,0
2023-04-12T01:55:21.811Z,0
2023-04-12T01:56:38.121Z,0
2023-04-12T01:57:54.411Z,0
2023-04-12T01:59:10.710Z,0
2023-04-12T02:00:27.004Z,0
2023-04-12T02:01:43.305Z,0
2023-04-12T02:02:58.609Z,0
2023-04-12T02:04:14.908Z,0
2023-04-12T02:05:31.200Z,0
2023-04-12T02:06:47.495Z,0
2023-04-12T02:08:03.779Z,0
2023-04-12T02:09:20.077Z,0
2023-04-12T02:10:36.371Z,0
2023-04-12T02:13:08.977Z,0
2023-04-12T02:14:25.260Z,0
2023-04-12T02:15:41.559Z,0
2023-04-12T02:16:57.861Z,0
2023-04-12T02:18:14.159Z,0
2023-04-12T02:19:29.469Z,0
2023-04-12T02:20:45.756Z,0
2023-04-12T02:22:02.059Z,0
2023-04-12T02:23:18.339Z,0
2023-04-12T02:24:34.639Z,0
2023-04-12T02:27:07.235Z,0
2023-04-12T02:28:23.531Z,0
2023-04-12T02:30:56.110Z,0
2023-04-12T02:32:11.426Z,0
2023-04-12T02:33:26.741Z,0
2023-04-12T02:34:43.031Z,0
2023-04-12T02:35:59.325Z,0
2023-04-12T02:37:15.634Z,0
2023-04-12T02:38:31.925Z,0
2023-04-12T02:41:04.511Z,0
2023-04-12T02:42:20.801Z,0
2023-04-12T02:43:37.096Z,0
2023-04-12T02:44:53.395Z,0
2023-04-12T02:46:09.681Z,0
2023-04-12T02:47:25.978Z,0
2023-04-12T02:48:42.284Z,0
2023-04-12T02:49:57.599Z,0
2023-04-12T02:51:13.876Z,0
2023-04-12T02:52:30.189Z,0
2023-04-12T02:53:46.481Z,0
2023-04-12T02:55:02.775Z,0
2023-04-12T02:56:19.060Z,0
2023-04-12T02:57:35.351Z,0
2023-04-12T02:58:51.648Z,0
2023-04-12T03:00:06.972Z,0
2023-04-12T03:01:22.280Z,0
2023-04-12T03:02:38.587Z,0
2023-04-12T03:03:54.880Z,0
2023-04-12T03:05:11.167Z,0
2023-04-12T03:06:27.470Z,0
2023-04-12T03:07:43.756Z,0
2023-04-12T03:09:00.045Z,0
2023-04-12T03:10:16.351Z,0
2023-04-12T03:11:32.648Z,0
2023-04-12T03:12:48.933Z,0
2023-04-12T03:14:05.241Z,0
2023-04-12T03:15:21.516Z,0
2023-04-12T03:16:37.820Z,0
2023-04-12T03:17:53.140Z,0
2023-04-12T03:19:09.432Z,0
2023-04-12T03:21:42.026Z,0
2023-04-12T03:22:58.308Z,0
2023-04-12T03:24:14.611Z,0
2023-04-12T03:25:30.899Z,0
2023-04-12T03:26:47.192Z,0
2023-04-12T03:28:03.485Z,0
2023-04-12T03:29:19.786Z,0
2023-04-12T03:30:36.077Z,0
2023-04-12T03:31:52.369Z,0
2023-04-12T03:33:08.674Z,0
2023-04-12T03:34:23.971Z,0
2023-04-12T03:35:40.287Z,0
2023-04-12T03:36:56.562Z,0
2023-04-12T03:38:12.877Z,0
2023-04-12T03:39:29.106Z,1
2023-04-12T03:40:45.413Z,0
2023-04-12T03:42:01.690Z,0
2023-04-12T03:43:17.944Z,1
2023-04-12T03:44:34.201Z,1
2023-04-12T03:45:50.429Z,1
2023-04-12T03:47:06.739Z,0
2023-04-12T03:48:22.981Z,2
2023-04-12T03:49:39.213Z,1
2023-04-12T03:50:54.529Z,0
2023-04-12T03:52:10.784Z,2
2023-04-12T03:53:27.027Z,1
2023-04-12T03:54:43.270Z,2
2023-04-12T03:55:59.509Z,4
2023-04-12T03:58:31.986Z,2
2023-04-12T04:01:04.470Z,4
2023-04-12T04:02:20.719Z,5
2023-04-12T04:03:36.943Z,6
2023-04-12T04:04:53.199Z,8
2023-04-12T04:06:09.444Z,10
2023-04-12T04:07:24.692Z,12
2023-04-12T04:08:40.921Z,17
2023-04-12T04:09:57.167Z,22
2023-04-12T04:11:13.410Z,26
2023-04-12T04:12:29.662Z,31
2023-04-12T04:13:45.903Z,38
2023-04-12T04:15:02.141Z,46
2023-04-12T04:16:17.406Z,55
2023-04-12T04:17:33.630Z,63
2023-04-12T04:18:49.890Z,72
2023-04-12T04:20:06.117Z,81
2023-04-12T04:21:22.370Z,90
2023-04-12T04:22:38.601Z,100
2023-04-12T04:23:54.835Z,109
2023-04-12T04:25:11.088Z,119
2023-04-12T04:26:27.326Z,141
2023-04-12T04:27:43.572Z,173
2023-04-12T04:28:59.812Z,197
2023-04-12T04:30:16.051Z,218
2023-04-12T04:31:32.295Z,252
2023-04-12T04:32:47.543Z,299
2023-04-12T04:34:03.790Z,335
2023-04-12T04:35:20.036Z,367
2023-04-12T04:37:52.514Z,434
2023-04-12T04:39:08.760Z,468
2023-04-12T04:40:24.983Z,516
2023-04-12T04:41:41.230Z,558
2023-04-12T04:42:57.474Z,610
2023-04-12T04:44:13.713Z,651
2023-04-12T04:45:29.953Z,687
2023-04-12T04:46:46.201Z,735
2023-04-12T04:48:02.434Z,803
2023-04-12T04:49:17.685Z,856
2023-04-12T04:50:33.941Z,905
2023-04-12T04:51:50.180Z,950
2023-04-12T04:53:06.408Z,986
2023-04-12T04:54:22.659Z,1030
2023-04-12T04:55:38.888Z,1071
2023-04-12T04:56:55.140Z,1106
2023-04-12T04:58:11.378Z,1155
2023-04-12T04:59:27.629Z,1205
2023-04-12T05:00:43.858Z,1248
2023-04-12T05:02:00.110Z,1275
2023-04-12T05:03:16.346Z,1290
2023-04-12T05:04:32.581Z,1311
2023-04-12T05:05:47.835Z,1319
2023-04-12T05:07:04.086Z,1325
2023-04-12T05:08:20.313Z,1353
2023-04-12T05:09:36.562Z,1387
2023-04-12T05:10:52.796Z,1429
2023-04-12T05:12:09.035Z,1493
2023-04-12T05:13:25.292Z,1574
2023-04-12T05:14:41.518Z,1633
2023-04-12T05:15:57.769Z,1669
2023-04-12T05:17:14.006Z,1652
2023-04-12T05:18:30.251Z,1642
2023-04-12T05:19:46.493Z,1633
2023-04-12T05:21:02.738Z,1599
2023-04-12T05:22:17.978Z,1585
2023-04-12T05:23:34.217Z,1619
2023-04-12T05:24:50.464Z,1700
2023-04-12T05:26:06.706Z,1820
2023-04-12T05:27:22.958Z,1909
2023-04-12T05:28:39.188Z,1965
2023-04-12T05:31:11.675Z,2117
2023-04-12T05:32:27.913Z,2209
2023-04-12T05:33:44.152Z,2276
2023-04-12T05:35:00.399Z,2332
2023-04-12T05:36:16.636Z,2379
2023-04-12T05:37:32.873Z,2400
2023-04-12T05:38:48.131Z,2414
2023-04-12T05:40:04.362Z,2429
2023-04-12T05:41:20.606Z,2471
2023-04-12T05:42:36.842Z,2542
2023-04-12T05:43:53.097Z,2622
2023-04-12T05:45:09.322Z,2720
2023-04-12T05:46:25.583Z,2799
2023-04-12T05:47:41.819Z,2903
2023-04-12T05:48:58.064Z,2969
2023-04-12T05:50:14.286Z,3052
2023-04-12T05:51:30.537Z,3108
2023-04-12T05:52:46.768Z,3100
2023-04-12T05:54:03.007Z,3056
2023-04-12T05:55:18.272Z,2990
2023-04-12T05:56:34.508Z,2898
2023-04-12T05:57:50.746Z,2863
2023-04-12T05:59:06.986Z,2833
2023-04-12T06:00:23.000Z,2854
2023-04-12T06:01:39.480Z,2844
2023-04-12T06:02:55.710Z,2787
2023-04-12T06:04:11.949Z,2767
2023-04-12T06:05:28.207Z,2746
2023-04-12T06:06:44.447Z,2711
2023-04-12T06:08:00.678Z,2720
2023-04-12T06:09:16.931Z,2721
2023-04-12T06:10:33.163Z,2801
2023-04-12T06:11:48.418Z,2801
2023-04-12T06:13:04.654Z,2852
2023-04-12T06:14:20.902Z,2898
2023-04-12T06:15:37.134Z,2912
2023-04-12T06:16:53.377Z,2902
2023-04-12T06:18:09.628Z,2811
2023-04-12T06:19:25.863Z,2774
2023-04-12T06:20:42.106Z,2761
2023-04-12T06:21:58.345Z,2682
2023-04-12T06:23:14.579Z,2621
2023-04-12T06:24:30.833Z,2565
2023-04-12T06:25:47.063Z,2492
2023-04-12T06:27:03.301Z,2441
2023-04-12T06:28:18.554Z,2400
2023-04-12T06:29:34.812Z,2366
2023-04-12T06:30:51.049Z,2369
2023-04-12T06:32:07.286Z,2391
2023-04-12T06:33:23.515Z,2385
2023-04-12T06:34:39.770Z,2374
2023-04-12T06:35:56.002Z,2370
2023-04-12T06:37:12.242Z,2348
2023-04-12T06:38:28.481Z,2315
2023-04-12T06:39:44.731Z,2288
2023-04-12T06:41:00.970Z,2268
2023-04-12T06:42:17.217Z,2246
2023-04-12T06:43:33.440Z,2225
2023-04-12T06:44:48.713Z,2202
2023-04-12T06:47:21.187Z,2171
2023-04-12T06:48:37.436Z,2140
2023-04-12T06:49:53.658Z,2102
2023-04-12T06:51:09.912Z,2099
2023-04-12T06:52:26.147Z,2119
2023-04-12T06:53:42.386Z,2116
2023-04-12T06:54:58.625Z,2113
2023-04-12T06:56:14.876Z,2104
2023-04-12T06:57:31.106Z,2097
2023-04-12T06:58:47.000Z,2091
2023-04-12T07:00:03.585Z,2086
2023-04-12T07:01:18.842Z,2081
2023-04-12T07:02:35.095Z,2073
2023-04-12T07:03:51.331Z,2071
2023-04-12T07:05:07.579Z,2068
2023-04-12T07:06:23.806Z,2062
2023-04-12T07:07:40.044Z,2061
2023-04-12T07:08:56.284Z,2059
2023-04-12T07:10:12.533Z,2058
2023-04-12T07:11:28.767Z,2060
2023-04-12T07:12:45.011Z,2056
2023-04-12T07:14:01.247Z,2055
2023-04-12T07:15:17.492Z,2061
2023-04-12T07:17:49.977Z,2063
2023-04-12T07:19:05.223Z,2062
2023-04-12T07:20:21.479Z,2064
2023-04-12T07:21:37.718Z,2063
2023-04-12T07:22:53.957Z,2061
2023-04-12T07:24:10.191Z,2061
2023-04-12T07:25:26.430Z,2063
2023-04-12T07:26:42.685Z,2063
2023-04-12T07:27:58.907Z,2067
2023-04-12T07:29:15.157Z,2068
2023-04-12T07:30:31.404Z,2068
2023-04-12T07:31:47.638Z,2072
2023-04-12T07:33:03.878Z,2074
2023-04-12T07:34:20.110Z,2076
2023-04-12T07:35:35.369Z,2076
2023-04-12T07:36:51.615Z,2077
2023-04-12T07:38:07.864Z,2082
2023-04-12T07:39:24.095Z,2085
2023-04-12T07:40:40.328Z,2084
2023-04-12T07:41:56.571Z,2086
2023-04-12T07:43:12.830Z,2087
2023-04-12T07:44:29.062Z,2089
2023-04-12T07:45:45.294Z,2091
2023-04-12T07:47:01.536Z,2093
2023-04-12T07:48:17.784Z,2096
2023-04-12T07:49:34.018Z,2098
2023-04-12T07:50:50.263Z,2100
2023-04-12T07:52:05.525Z,2102
2023-04-12T07:53:21.762Z,2103
2023-04-12T07:54:38.006Z,2104
2023-04-12T07:55:54.236Z,2110
2023-04-12T07:57:10.490Z,2112
2023-04-12T07:58:26.716Z,2114
2023-04-12T07:59:42.962Z,2119
2023-04-12T08:00:59.198Z,2120
2023-04-12T08:02:15.440Z,2119
2023-04-12T08:03:31.684Z,2121
2023-04-12T08:04:47.918Z,2121
2023-04-12T08:06:04.166Z,2127
2023-04-12T08:07:20.410Z,2127
2023-04-12T08:08:35.670Z,2125
2023-04-12T08:09:51.901Z,2126
2023-04-12T08:11:08.136Z,2125
2023-04-12T08:12:24.383Z,2128
2023-04-12T08:13:40.615Z,2131
2023-04-12T08:14:56.863Z,2134
2023-04-12T08:16:13.106Z,2137
2023-04-12T08:18:45.594Z,2162
2023-04-12T08:20:01.825Z,2192
2023-04-12T08:21:18.068Z,2233
2023-04-12T08:22:34.317Z,2280
2023-04-12T08:23:50.544Z,2325
2023-04-12T08:26:22.040Z,2476
2023-04-12T08:27:38.286Z,2577
2023-04-12T08:28:54.533Z,2674
2023-04-12T08:30:10.758Z,2793
2023-04-12T08:31:26.023Z,2918
2023-04-12T08:32:42.263Z,2961
2023-04-12T08:33:58.500Z,3087
2023-04-12T08:35:14.754Z,3099
2023-04-12T08:36:30.974Z,3181
2023-04-12T08:37:47.228Z,3427
2023-04-12T08:39:03.458Z,3633
2023-04-12T08:41:35.939Z,4124
2023-04-12T08:42:51.197Z,4307
2023-04-12T08:44:06.464Z,4339
2023-04-12T08:45:22.702Z,4325
2023-04-12T08:46:38.944Z,4304
2023-04-12T08:47:55.184Z,4308
2023-04-12T08:49:11.424Z,4340
2023-04-12T08:50:27.646Z,4494
2023-04-12T08:51:43.000Z,4812
2023-04-12T08:53:00.143Z,5126
2023-04-12T08:54:16.365Z,5344
2023-04-12T08:55:32.608Z,5398
2023-04-12T08:56:47.874Z,5350
2023-04-12T08:58:03.130Z,5322
2023-04-12T08:59:19.372Z,5114
2023-04-12T09:00:35.607Z,5186
2023-04-12T09:01:51.849Z,5163
2023-04-12T09:03:08.083Z,5271
2023-04-12T09:04:24.325Z,5333
2023-04-12T09:05:40.577Z,5440
2023-04-12T09:06:56.802Z,5399
2023-04-12T09:08:13.049Z,5442
2023-04-12T09:09:29.289Z,5326
2023-04-12T09:10:45.526Z,5238
2023-04-12T09:12:01.782Z,5367
2023-04-12T09:13:18.013Z,5919
2023-04-12T09:14:33.263Z,5961
2023-04-12T09:15:49.510Z,5891
2023-04-12T09:17:05.747Z,6047
2023-04-12T09:18:21.989Z,6125
2023-04-12T09:19:38.232Z,6299
2023-04-12T09:20:54.462Z,6187
2023-04-12T09:22:10.712Z,6227
2023-04-12T09:23:26.937Z,6589
2023-04-12T09:24:43.186Z,6767
2023-04-12T09:25:59.429Z,7048
2023-04-12T09:27:15.672Z,7007
2023-04-12T09:28:31.901Z,7257
2023-04-12T09:29:48.143Z,7194
2023-04-12T09:31:04.377Z,6941
2023-04-12T09:32:19.638Z,6838
2023-04-12T09:33:35.874Z,6502
2023-04-12T09:34:52.128Z,6453
2023-04-12T09:36:08.367Z,6239
2023-04-12T09:37:24.612Z,6235
2023-04-12T09:38:40.843Z,6663
2023-04-12T09:39:57.077Z,7078
2023-04-12T09:43:45.805Z,8022
2023-04-12T09:45:02.049Z,7794
2023-04-12T09:47:34.522Z,7244
2023-04-12T09:48:49.783Z,6945
2023-04-12T09:50:05.047Z,6516
2023-04-12T09:51:21.286Z,6653
2023-04-12T09:52:37.524Z,6250
2023-04-12T09:53:53.772Z,6506
2023-04-12T09:55:10.012Z,6204
2023-04-12T09:56:26.242Z,7046
2023-04-12T09:57:42.487Z,6614
2023-04-12T09:58:58.716Z,6678
2023-04-12T10:00:14.967Z,6050
2023-04-12T10:04:03.680Z,5340
2023-04-12T10:05:18.943Z,5448
2023-04-12T10:11:39.165Z,5432
2023-04-12T10:21:49.082Z,4429
2023-04-12T10:23:04.327Z,4307
2023-04-12T10:24:20.577Z,4328
2023-04-12T10:25:36.823Z,4273
2023-04-12T10:26:53.065Z,4236
2023-04-12T10:28:09.297Z,4246
2023-04-12T10:29:25.541Z,4343
2023-04-12T10:30:41.773Z,4663
2023-04-12T10:33:14.242Z,4991
2023-04-12T10:34:30.502Z,5245
2023-04-12T10:35:46.737Z,5999
2023-04-12T10:37:02.981Z,6181
2023-04-12T10:38:19.210Z,5732
2023-04-12T10:39:34.471Z,5841
2023-04-12T10:40:50.697Z,6087
2023-04-12T10:42:06.940Z,6275
2023-04-12T10:43:23.181Z,6587
2023-04-12T10:44:39.418Z,6908
2023-04-12T10:45:55.670Z,7218
2023-04-12T10:47:11.897Z,7406
2023-04-12T10:48:27.164Z,7521
2023-04-12T10:49:42.423Z,7494
2023-04-12T10:50:58.674Z,7365
2023-04-12T10:52:14.912Z,7277
2023-04-12T10:53:31.148Z,7301
2023-04-12T10:54:47.374Z,7486
2023-04-12T10:56:03.617Z,7566
2023-04-12T10:57:19.867Z,7759
2023-04-12T10:58:36.107Z,7972
2023-04-12T10:59:52.353Z,8153
2023-04-12T11:01:08.590Z,8441
2023-04-12T11:02:23.846Z,8587
2023-04-12T11:03:39.111Z,8783
2023-04-12T11:04:55.335Z,8838
2023-04-12T11:06:11.573Z,8832
2023-04-12T11:07:27.827Z,8767
2023-04-12T11:08:44.054Z,8739
2023-04-12T11:10:00.303Z,8751
2023-04-12T11:11:16.540Z,8707
2023-04-12T11:13:49.029Z,8495
2023-04-12T11:15:05.252Z,8245
2023-04-12T11:16:21.501Z,8358
2023-04-12T11:17:37.733Z,7738
2023-04-12T11:18:53.984Z,7567
2023-04-12T11:20:09.244Z,6636
2023-04-12T11:21:25.478Z,7236
2023-04-12T11:22:41.708Z,7461
2023-04-12T11:23:57.945Z,7428
2023-04-12T11:25:14.188Z,6317
2023-04-12T11:26:30.441Z,6401
2023-04-12T11:27:46.665Z,6599
2023-04-12T11:29:02.907Z,6641
2023-04-12T11:30:19.153Z,6897
2023-04-12T11:31:35.390Z,7066
2023-04-12T11:32:51.641Z,7411
2023-04-12T11:34:07.874Z,7756
2023-04-12T11:35:24.120Z,7722
2023-04-12T11:36:39.366Z,7644
2023-04-12T11:37:55.605Z,8058
2023-04-12T11:39:11.850Z,8516
2023-04-12T11:40:28.083Z,8710
2023-04-12T11:41:44.334Z,8804
2023-04-12T11:43:00.565Z,9012
2023-04-12T11:44:16.815Z,8845
2023-04-12T11:45:33.053Z,8779
2023-04-12T11:46:49.290Z,8674
2023-04-12T11:48:05.522Z,8498
2023-04-12T11:49:21.762Z,8413
2023-04-12T11:50:38.011Z,8736
2023-04-12T11:51:54.236Z,8481
2023-04-12T11:53:09.507Z,7994
2023-04-12T11:54:25.734Z,7483
2023-04-12T11:55:41.991Z,8015
2023-04-12T11:56:58.220Z,8208
2023-04-12T11:58:14.471Z,7721
2023-04-12T11:59:30.704Z,7955
2023-04-12T12:00:46.941Z,8371
2023-04-12T12:02:03.191Z,8479
2023-04-12T12:03:19.429Z,7658
2023-04-12T12:04:35.658Z,7372
2023-04-12T12:05:51.897Z,7469
2023-04-12T12:07:08.135Z,6974
2023-04-12T12:08:24.391Z,6240
2023-04-12T12:09:39.636Z,5570
2023-04-12T12:10:55.868Z,5558
2023-04-12T12:12:12.106Z,5353
2023-04-12T12:13:28.355Z,5374
2023-04-12T12:14:44.605Z,5998
2023-04-12T12:16:00.845Z,5509
2023-04-12T12:17:17.067Z,5063
2023-04-12T12:18:33.321Z,5237
2023-04-12T12:19:49.561Z,5200
2023-04-12T12:21:05.788Z,5893
2023-04-12T12:22:22.029Z,5239
2023-04-12T12:23:38.271Z,4960
2023-04-12T12:24:54.525Z,4762
2023-04-12T12:26:09.765Z,5555
2023-04-12T12:27:26.016Z,6634
2023-04-12T12:28:42.244Z,6882
2023-04-12T12:29:58.498Z,7129
2023-04-12T12:31:14.729Z,6398
2023-04-12T12:32:30.982Z,5806
2023-04-12T12:33:47.216Z,5501
2023-04-12T12:35:03.452Z,4779
2023-04-12T12:37:35.922Z,4778
2023-04-12T12:38:52.169Z,3939
2023-04-12T12:40:08.401Z,3607
2023-04-12T12:41:24.649Z,3148
2023-04-12T12:42:39.898Z,2595
2023-04-12T12:43:56.150Z,2511
2023-04-12T12:45:12.387Z,2614
2023-04-12T12:46:27.650Z,2753
2023-04-12T12:47:43.896Z,2495
2023-04-12T12:49:00.133Z,2995
2023-04-12T12:50:16.363Z,3597
2023-04-12T12:51:32.597Z,3910
2023-04-12T12:52:48.848Z,4195
2023-04-12T12:54:05.076Z,3996
2023-04-12T12:55:21.324Z,3616
2023-04-12T12:56:37.569Z,3737
2023-04-12T12:57:53.804Z,3598
2023-04-12T12:59:10.053Z,3878
2023-04-12T13:00:26.284Z,4293
2023-04-12T13:01:42.534Z,4831
2023-04-12T13:02:57.790Z,5460
2023-04-12T13:04:14.017Z,5163
2023-04-12T13:05:30.252Z,4605
2023-04-12T13:08:02.753Z,4513
2023-04-12T13:09:18.988Z,3710
2023-04-12T13:10:35.224Z,3785
2023-04-12T13:11:51.455Z,4397
2023-04-12T13:13:07.706Z,4398
2023-04-12T13:14:23.946Z,4662
2023-04-12T13:15:40.182Z,4856
2023-04-12T13:16:56.429Z,4954
2023-04-12T13:18:12.666Z,5510
2023-04-12T13:20:44.148Z,6134
2023-04-12T13:22:00.389Z,6201
2023-04-12T13:23:16.623Z,5645
2023-04-12T13:24:32.876Z,5314
2023-04-12T13:25:49.108Z,4647
2023-04-12T13:27:05.353Z,4553
2023-04-12T13:28:21.581Z,5417
2023-04-12T13:29:37.820Z,4789
2023-04-12T13:30:54.062Z,4591
2023-04-12T13:32:10.298Z,4948
2023-04-12T13:33:26.546Z,4700
2023-04-12T13:34:42.797Z,3901
2023-04-12T13:35:58.046Z,3693
2023-04-12T13:38:30.526Z,3338
2023-04-12T13:39:46.771Z,3064
2023-04-12T13:41:03.001Z,3329
2023-04-12T13:42:19.240Z,3295
2023-04-12T13:43:35.491Z,3477
2023-04-12T13:46:07.968Z,3699
2023-04-12T13:47:23.236Z,4012
2023-04-12T13:48:38.490Z,4479
2023-04-12T13:49:54.715Z,4809
2023-04-12T13:51:10.961Z,4866
2023-04-12T13:52:27.192Z,4924
2023-04-12T13:53:43.434Z,4753
2023-04-12T13:54:59.677Z,4247
2023-04-12T13:56:15.912Z,3608
2023-04-12T13:57:32.157Z,3322
2023-04-12T13:58:48.391Z,3398
2023-04-12T14:00:04.647Z,3535
2023-04-12T14:01:19.910Z,3465
2023-04-12T14:02:35.165Z,3391
2023-04-12T14:05:07.633Z,3146
2023-04-12T14:06:23.887Z,3073
2023-04-12T14:07:40.119Z,2936
2023-04-12T14:08:56.356Z,2782
2023-04-12T14:10:12.592Z,2595
2023-04-12T14:11:28.843Z,2551
2023-04-12T14:12:45.075Z,2641
2023-04-12T14:14:01.329Z,2736
2023-04-12T14:16:33.791Z,2802
2023-04-12T14:17:49.069Z,2787
2023-04-12T14:19:04.326Z,2668
2023-04-12T14:20:20.555Z,2524
2023-04-12T14:21:36.785Z,2407
2023-04-12T14:22:53.042Z,2340
2023-04-12T14:24:09.272Z,2304
2023-04-12T14:25:25.523Z,2377
2023-04-12T14:26:41.760Z,2645
2023-04-12T14:27:57.994Z,2865
2023-04-12T14:29:14.241Z,3288
2023-04-12T14:30:30.466Z,3456
2023-04-12T14:31:45.730Z,3438
2023-04-12T14:33:01.000Z,3532
2023-04-12T14:34:17.238Z,3305
2023-04-12T14:35:33.477Z,2854
2023-04-12T14:36:49.717Z,2429
2023-04-12T14:38:05.943Z,2120
2023-04-12T14:39:22.198Z,2130
2023-04-12T14:40:38.437Z,2442
2023-04-12T14:41:54.675Z,2669
2023-04-12T14:43:10.917Z,3090
2023-04-12T14:44:27.147Z,3289
2023-04-12T14:45:43.400Z,3308
2023-04-12T14:46:59.633Z,3479
2023-04-12T14:48:15.874Z,3967
2023-04-12T14:49:31.137Z,4824
2023-04-12T14:50:47.373Z,5295
2023-04-12T14:52:03.599Z,5394
2023-04-12T14:53:19.842Z,5274
2023-04-12T14:54:36.078Z,5425
2023-04-12T14:55:52.329Z,5371
2023-04-12T14:57:08.574Z,4558
2023-04-12T14:58:24.810Z,3781
2023-04-12T14:59:41.043Z,3229
2023-04-12T15:00:57.281Z,2764
2023-04-12T15:02:13.515Z,2562
2023-04-12T15:03:29.766Z,2516
2023-04-12T15:04:46.011Z,2548
2023-04-12T15:06:01.264Z,2516
2023-04-12T15:07:17.507Z,2651
2023-04-12T15:08:33.732Z,2894
2023-04-12T15:09:49.988Z,3147
2023-04-12T15:12:22.457Z,2405
2023-04-12T15:13:38.694Z,2048
2023-04-12T15:14:54.945Z,1890
2023-04-12T15:16:11.183Z,1624
2023-04-12T15:17:27.427Z,1363
2023-04-12T15:18:43.658Z,1347
2023-04-12T15:19:59.898Z,1517
2023-04-12T15:21:16.130Z,2414
2023-04-12T15:22:31.397Z,3792
2023-04-12T15:23:47.628Z,4401
2023-04-12T15:25:03.869Z,5077
2023-04-12T15:26:20.104Z,5655
2023-04-12T15:27:36.355Z,5438
2023-04-12T15:28:52.601Z,5083
2023-04-12T15:30:08.839Z,4746
2023-04-12T15:31:25.066Z,4322
2023-04-12T15:32:41.316Z,4037
2023-04-12T15:33:57.565Z,3761
2023-04-12T15:35:13.793Z,3521
2023-04-12T15:36:30.041Z,3336
2023-04-12T15:37:46.269Z,3306
2023-04-12T15:39:02.508Z,3284
2023-04-12T15:40:17.772Z,3039
2023-04-12T15:41:34.013Z,2944
2023-04-12T15:42:50.257Z,2782
2023-04-12T15:44:06.492Z,2412
2023-04-12T15:45:22.739Z,2385
2023-04-12T15:47:55.204Z,2242
2023-04-12T15:49:11.446Z,2051
2023-04-12T15:51:43.932Z,1826
2023-04-12T15:53:00.164Z,1915
2023-04-12T15:55:32.651Z,1890
2023-04-12T15:56:47.916Z,1838
2023-04-12T15:58:03.160Z,1729
2023-04-12T15:59:19.409Z,1526
2023-04-12T16:00:35.649Z,1392
2023-04-12T16:01:51.876Z,1297
2023-04-12T16:03:08.129Z,1206
2023-04-12T16:04:24.369Z,1116
2023-04-12T16:05:40.599Z,1052
2023-04-12T16:06:56.838Z,1070
2023-04-12T16:08:13.091Z,1100
2023-04-12T16:09:29.331Z,1110
2023-04-12T16:10:44.585Z,1190
2023-04-12T16:11:59.847Z,1283
2023-04-12T16:13:16.090Z,1334
2023-04-12T16:14:32.317Z,1355
2023-04-12T16:15:48.559Z,1392
2023-04-12T16:17:04.811Z,1402
2023-04-12T16:18:21.051Z,1433
2023-04-12T16:19:37.291Z,1717
2023-04-12T16:20:53.530Z,2046
2023-04-12T16:22:09.768Z,2141
2023-04-12T16:23:26.005Z,2150
2023-04-12T16:24:42.235Z,2057
2023-04-12T16:25:58.489Z,1984
2023-04-12T16:27:14.721Z,1803
2023-04-12T16:28:29.969Z,1716
2023-04-12T16:29:46.228Z,1853
2023-04-12T16:31:02.462Z,1925
2023-04-12T16:33:34.946Z,2224
2023-04-12T16:34:51.182Z,2486
2023-04-12T16:36:07.418Z,2492
2023-04-12T16:37:23.654Z,2547
2023-04-12T16:38:39.903Z,2739
2023-04-12T16:39:56.145Z,2756
2023-04-12T16:41:12.379Z,2504
2023-04-12T16:42:28.612Z,2626
2023-04-12T16:43:44.860Z,2565
2023-04-12T16:45:00.111Z,2253
2023-04-12T16:46:16.357Z,1893
2023-04-12T16:47:32.597Z,1630
2023-04-12T16:48:48.831Z,1402
2023-04-12T16:50:05.069Z,1347
2023-04-12T16:52:37.564Z,1249
2023-04-12T16:53:53.784Z,1096
2023-04-12T16:55:10.029Z,1026
2023-04-12T16:56:26.279Z,933
2023-04-12T16:57:42.513Z,754
2023-04-12T16:58:58.757Z,624
2023-04-12T17:00:14.991Z,533
2023-04-12T17:01:30.248Z,448
2023-04-12T17:02:46.484Z,423
2023-04-12T17:04:02.743Z,398
2023-04-12T17:05:18.983Z,403
2023-04-12T17:06:35.213Z,406
2023-04-12T17:07:51.461Z,380
2023-04-12T17:09:07.700Z,394
2023-04-12T17:10:23.929Z,425
2023-04-12T17:11:40.183Z,432
2023-04-12T17:12:56.415Z,410
2023-04-12T17:14:12.647Z,404
2023-04-12T17:15:28.896Z,389
2023-04-12T17:16:45.128Z,350
2023-04-12T17:18:00.391Z,323
2023-04-12T17:19:16.628Z,274
2023-04-12T17:20:32.871Z,254
2023-04-12T17:23:05.354Z,250
2023-04-12T17:24:21.582Z,260
2023-04-12T17:26:54.080Z,259
2023-04-12T17:28:10.300Z,234
2023-04-12T17:29:26.561Z,218
2023-04-12T17:30:42.794Z,223
2023-04-12T17:33:15.264Z,235
2023-04-12T17:34:30.530Z,250
2023-04-12T17:35:45.785Z,263
2023-04-12T17:37:02.024Z,241
2023-04-12T17:38:18.257Z,212
2023-04-12T17:39:34.498Z,188
2023-04-12T17:40:50.740Z,179
2023-04-12T17:42:06.985Z,175
2023-04-12T17:43:23.232Z,168
2023-04-12T17:44:39.469Z,170
2023-04-12T17:45:55.698Z,177
2023-04-12T17:47:11.939Z,181
2023-04-12T17:48:28.331Z,175
2023-04-12T17:49:44.701Z,168
2023-04-12T17:51:00.930Z,148
2023-04-12T17:52:17.177Z,125
2023-04-12T17:53:33.413Z,105
2023-04-12T17:54:49.643Z,96
2023-04-12T17:56:05.888Z,93
2023-04-12T17:57:22.136Z,88
2023-04-12T17:58:38.372Z,88
2023-04-12T17:59:54.608Z,90
2023-04-12T18:01:10.856Z,91
2023-04-12T18:02:27.094Z,84
2023-04-12T18:03:43.337Z,71
2023-04-12T18:04:59.580Z,53
2023-04-12T18:06:14.818Z,38
2023-04-12T18:07:31.063Z,28
2023-04-12T18:08:47.305Z,24
2023-04-12T18:10:03.549Z,30
2023-04-12T18:11:19.794Z,35
2023-04-12T18:12:36.023Z,28
2023-04-12T18:13:52.276Z,25
2023-04-12T18:15:08.511Z,19
2023-04-12T18:16:24.748Z,13
2023-04-12T18:17:40.984Z,9
2023-04-12T18:18:57.236Z,11
2023-04-12T18:20:13.467Z,8
2023-04-12T18:21:29.700Z,9
2023-04-12T18:22:44.972Z,4
2023-04-12T18:24:01.207Z,5
2023-04-12T18:25:17.445Z,5
2023-04-12T18:26:33.684Z,2
2023-04-12T18:27:49.930Z,2
2023-04-12T18:29:06.164Z,1